sensor_id;sensor_type;location;lat;lon;timestamp;temperature;humidity
913;DHT22;443;51.448;7.028;2022-12-29T00:02:19;13.50;79.40
913;DHT22;443;51.448;7.028;2022-12-29T00:04:46;13.50;79.40
913;DHT22;443;51.448;7.028;2022-12-29T00:07:14;13.50;79.40
913;DHT22;443;51.448;7.028;2022-12-29T00:09:41;13.50;79.60
913;DHT22;443;51.448;7.028;2022-12-29T00:12:07;13.50;79.60
913;DHT22;443;51.448;7.028;2022-12-29T00:14:34;13.50;79.40
913;DHT22;443;51.448;7.028;2022-12-29T00:17:18;13.50;79.40
913;DHT22;443;51.448;7.028;2022-12-29T00:19:45;13.50;79.70
913;DHT22;443;51.448;7.028;2022-12-29T00:22:31;13.50;80.30
913;DHT22;443;51.448;7.028;2022-12-29T00:25:16;13.50;79.80
913;DHT22;443;51.448;7.028;2022-12-29T00:28:00;13.50;79.40
913;DHT22;443;51.448;7.028;2022-12-29T00:30:45;13.50;79.90
913;DHT22;443;51.448;7.028;2022-12-29T00:33:30;13.50;80.00
913;DHT22;443;51.448;7.028;2022-12-29T00:36:18;13.50;79.80
913;DHT22;443;51.448;7.028;2022-12-29T00:38:50;13.50;79.70
913;DHT22;443;51.448;7.028;2022-12-29T00:41:35;13.50;79.60
913;DHT22;443;51.448;7.028;2022-12-29T00:44:19;13.50;80.10
913;DHT22;443;51.448;7.028;2022-12-29T00:46:46;13.50;80.00
913;DHT22;443;51.448;7.028;2022-12-29T00:49:13;13.40;80.10
913;DHT22;443;51.448;7.028;2022-12-29T00:51:59;13.50;80.00
913;DHT22;443;51.448;7.028;2022-12-29T00:54:28;13.50;80.00
913;DHT22;443;51.448;7.028;2022-12-29T00:56:55;13.40;79.90
913;DHT22;443;51.448;7.028;2022-12-29T00:59:22;13.50;80.10
913;DHT22;443;51.448;7.028;2022-12-29T01:01:50;13.50;79.80
913;DHT22;443;51.448;7.028;2022-12-29T01:04:18;13.50;80.10
913;DHT22;443;51.448;7.028;2022-12-29T01:06:45;13.50;80.10
913;DHT22;443;51.448;7.028;2022-12-29T01:09:11;13.50;80.30
913;DHT22;443;51.448;7.028;2022-12-29T01:11:57;13.50;79.90
913;DHT22;443;51.448;7.028;2022-12-29T01:14:24;13.50;80.30
913;DHT22;443;51.448;7.028;2022-12-29T01:16:51;13.50;80.10
913;DHT22;443;51.448;7.028;2022-12-29T01:19:19;13.50;80.20
913;DHT22;443;51.448;7.028;2022-12-29T01:21:46;13.50;80.10
913;DHT22;443;51.448;7.028;2022-12-29T01:24:14;13.50;79.80
913;DHT22;443;51.448;7.028;2022-12-29T01:26:41;13.50;79.90
913;DHT22;443;51.448;7.028;2022-12-29T01:29:09;13.40;80.00
913;DHT22;443;51.448;7.028;2022-12-29T01:31:36;13.40;80.00
913;DHT22;443;51.448;7.028;2022-12-29T01:34:03;13.40;79.90
913;DHT22;443;51.448;7.028;2022-12-29T01:36:31;13.50;79.90
913;DHT22;443;51.448;7.028;2022-12-29T01:38:57;13.50;79.80
913;DHT22;443;51.448;7.028;2022-12-29T01:41:24;13.50;79.70
913;DHT22;443;51.448;7.028;2022-12-29T01:43:53;13.50;79.60
913;DHT22;443;51.448;7.028;2022-12-29T01:46:23;13.50;79.80
913;DHT22;443;51.448;7.028;2022-12-29T01:48:54;13.50;79.80
913;DHT22;443;51.448;7.028;2022-12-29T01:51:22;13.50;80.20
913;DHT22;443;51.448;7.028;2022-12-29T01:53:50;13.50;79.40
913;DHT22;443;51.448;7.028;2022-12-29T01:56:19;13.50;79.40
913;DHT22;443;51.448;7.028;2022-12-29T01:58:50;13.50;79.40
913;DHT22;443;51.448;7.028;2022-12-29T02:01:19;13.50;79.20
913;DHT22;443;51.448;7.028;2022-12-29T02:03:48;13.40;79.20
913;DHT22;443;51.448;7.028;2022-12-29T02:06:19;13.50;79.40
913;DHT22;443;51.448;7.028;2022-12-29T02:08:47;13.50;79.20
913;DHT22;443;51.448;7.028;2022-12-29T02:11:16;13.40;79.30
913;DHT22;443;51.448;7.028;2022-12-29T02:13:43;13.50;79.40
913;DHT22;443;51.448;7.028;2022-12-29T02:16:19;13.50;80.00
913;DHT22;443;51.448;7.028;2022-12-29T02:18:56;13.50;79.10
913;DHT22;443;51.448;7.028;2022-12-29T02:21:48;13.50;79.20
913;DHT22;443;51.448;7.028;2022-12-29T02:27:34;13.50;79.00
913;DHT22;443;51.448;7.028;2022-12-29T02:30:09;13.60;78.80
913;DHT22;443;51.448;7.028;2022-12-29T02:32:49;13.60;78.60
913;DHT22;443;51.448;7.028;2022-12-29T02:35:25;13.60;78.60
913;DHT22;443;51.448;7.028;2022-12-29T02:38:02;13.60;78.50
913;DHT22;443;51.448;7.028;2022-12-29T02:40:37;13.60;78.50
913;DHT22;443;51.448;7.028;2022-12-29T02:43:13;13.60;78.70
913;DHT22;443;51.448;7.028;2022-12-29T02:45:45;13.60;78.10
913;DHT22;443;51.448;7.028;2022-12-29T02:48:18;13.60;78.30
913;DHT22;443;51.448;7.028;2022-12-29T02:50:53;13.60;77.90
913;DHT22;443;51.448;7.028;2022-12-29T02:53:23;13.60;78.00
913;DHT22;443;51.448;7.028;2022-12-29T02:56:05;13.60;77.70
913;DHT22;443;51.448;7.028;2022-12-29T02:58:32;13.60;78.00
913;DHT22;443;51.448;7.028;2022-12-29T03:01:11;13.60;77.70
913;DHT22;443;51.448;7.028;2022-12-29T03:03:48;13.60;78.00
913;DHT22;443;51.448;7.028;2022-12-29T03:06:30;13.60;77.50
913;DHT22;443;51.448;7.028;2022-12-29T03:09:05;13.60;77.80
913;DHT22;443;51.448;7.028;2022-12-29T03:11:42;13.60;78.10
913;DHT22;443;51.448;7.028;2022-12-29T03:14:33;13.60;77.90
913;DHT22;443;51.448;7.028;2022-12-29T03:17:24;13.60;78.10
913;DHT22;443;51.448;7.028;2022-12-29T03:19:59;13.60;77.90
913;DHT22;443;51.448;7.028;2022-12-29T03:22:29;13.60;77.80
913;DHT22;443;51.448;7.028;2022-12-29T03:25:03;13.60;77.60
913;DHT22;443;51.448;7.028;2022-12-29T03:27:34;13.60;77.40
913;DHT22;443;51.448;7.028;2022-12-29T03:30:05;13.60;77.50
913;DHT22;443;51.448;7.028;2022-12-29T03:32:36;13.60;77.70
913;DHT22;443;51.448;7.028;2022-12-29T03:35:08;13.60;77.70
913;DHT22;443;51.448;7.028;2022-12-29T03:37:40;13.60;78.00
913;DHT22;443;51.448;7.028;2022-12-29T03:40:08;13.60;77.60
913;DHT22;443;51.448;7.028;2022-12-29T03:42:36;13.60;77.50
913;DHT22;443;51.448;7.028;2022-12-29T03:45:04;13.60;77.60
913;DHT22;443;51.448;7.028;2022-12-29T03:47:32;13.60;77.70
913;DHT22;443;51.448;7.028;2022-12-29T03:49:59;13.70;78.30
913;DHT22;443;51.448;7.028;2022-12-29T03:52:27;13.70;78.20
913;DHT22;443;51.448;7.028;2022-12-29T03:54:54;13.70;77.90
913;DHT22;443;51.448;7.028;2022-12-29T03:57:21;13.70;78.00
913;DHT22;443;51.448;7.028;2022-12-29T03:59:48;13.60;78.00
913;DHT22;443;51.448;7.028;2022-12-29T04:02:14;13.70;78.10
913;DHT22;443;51.448;7.028;2022-12-29T04:04:41;13.70;78.10
913;DHT22;443;51.448;7.028;2022-12-29T04:07:08;13.60;77.90
913;DHT22;443;51.448;7.028;2022-12-29T04:09:36;13.70;77.80
913;DHT22;443;51.448;7.028;2022-12-29T04:12:03;13.70;78.00
913;DHT22;443;51.448;7.028;2022-12-29T04:14:30;13.70;77.80
913;DHT22;443;51.448;7.028;2022-12-29T04:16:56;13.70;77.90
913;DHT22;443;51.448;7.028;2022-12-29T04:19:23;13.70;77.90
913;DHT22;443;51.448;7.028;2022-12-29T04:21:50;13.70;77.60
913;DHT22;443;51.448;7.028;2022-12-29T04:24:17;13.70;77.70
913;DHT22;443;51.448;7.028;2022-12-29T04:26:45;13.70;77.40
913;DHT22;443;51.448;7.028;2022-12-29T04:29:12;13.70;77.80
913;DHT22;443;51.448;7.028;2022-12-29T04:31:38;13.70;77.80
913;DHT22;443;51.448;7.028;2022-12-29T04:34:05;13.70;77.60
913;DHT22;443;51.448;7.028;2022-12-29T04:36:32;13.70;77.60
913;DHT22;443;51.448;7.028;2022-12-29T04:38:59;13.70;77.50
913;DHT22;443;51.448;7.028;2022-12-29T04:41:25;13.70;77.30
913;DHT22;443;51.448;7.028;2022-12-29T04:43:54;13.70;76.90
913;DHT22;443;51.448;7.028;2022-12-29T04:46:20;13.70;77.30
913;DHT22;443;51.448;7.028;2022-12-29T04:48:47;13.70;77.30
913;DHT22;443;51.448;7.028;2022-12-29T04:51:14;13.70;77.10
913;DHT22;443;51.448;7.028;2022-12-29T04:53:40;13.70;76.60
913;DHT22;443;51.448;7.028;2022-12-29T04:56:07;13.70;77.20
913;DHT22;443;51.448;7.028;2022-12-29T04:58:34;13.70;77.30
913;DHT22;443;51.448;7.028;2022-12-29T05:01:02;13.70;77.10
913;DHT22;443;51.448;7.028;2022-12-29T05:03:29;13.70;77.20
913;DHT22;443;51.448;7.028;2022-12-29T05:05:56;13.70;77.20
913;DHT22;443;51.448;7.028;2022-12-29T05:08:23;13.70;77.30
913;DHT22;443;51.448;7.028;2022-12-29T05:10:50;13.70;77.40
913;DHT22;443;51.448;7.028;2022-12-29T05:13:17;13.60;77.00
913;DHT22;443;51.448;7.028;2022-12-29T05:15:47;13.60;77.20
913;DHT22;443;51.448;7.028;2022-12-29T05:18:17;13.60;76.90
913;DHT22;443;51.448;7.028;2022-12-29T05:20:44;13.60;77.00
913;DHT22;443;51.448;7.028;2022-12-29T05:23:11;13.60;76.80
913;DHT22;443;51.448;7.028;2022-12-29T05:25:37;13.60;77.10
913;DHT22;443;51.448;7.028;2022-12-29T05:28:04;13.60;77.30
913;DHT22;443;51.448;7.028;2022-12-29T05:30:31;13.60;77.20
913;DHT22;443;51.448;7.028;2022-12-29T05:32:58;13.60;77.10
913;DHT22;443;51.448;7.028;2022-12-29T05:35:26;13.60;77.10
913;DHT22;443;51.448;7.028;2022-12-29T05:37:53;13.60;77.10
913;DHT22;443;51.448;7.028;2022-12-29T05:40:20;13.60;76.90
913;DHT22;443;51.448;7.028;2022-12-29T05:42:46;13.60;77.40
913;DHT22;443;51.448;7.028;2022-12-29T05:45:13;13.70;77.60
913;DHT22;443;51.448;7.028;2022-12-29T05:47:40;13.70;77.70
913;DHT22;443;51.448;7.028;2022-12-29T05:50:07;13.70;78.00
913;DHT22;443;51.448;7.028;2022-12-29T05:52:35;13.70;78.00
913;DHT22;443;51.448;7.028;2022-12-29T05:55:02;13.70;78.00
913;DHT22;443;51.448;7.028;2022-12-29T05:57:29;13.60;78.10
913;DHT22;443;51.448;7.028;2022-12-29T05:59:56;13.70;78.30
913;DHT22;443;51.448;7.028;2022-12-29T06:02:23;13.70;78.30
913;DHT22;443;51.448;7.028;2022-12-29T06:04:49;13.70;78.40
913;DHT22;443;51.448;7.028;2022-12-29T06:07:16;13.70;78.30
913;DHT22;443;51.448;7.028;2022-12-29T06:09:44;13.70;78.20
913;DHT22;443;51.448;7.028;2022-12-29T06:12:11;13.70;78.30
913;DHT22;443;51.448;7.028;2022-12-29T06:14:38;13.70;78.10
913;DHT22;443;51.448;7.028;2022-12-29T06:17:04;13.70;78.30
913;DHT22;443;51.448;7.028;2022-12-29T06:19:32;13.70;78.20
913;DHT22;443;51.448;7.028;2022-12-29T06:21:58;13.70;78.10
913;DHT22;443;51.448;7.028;2022-12-29T06:24:25;13.70;78.00
913;DHT22;443;51.448;7.028;2022-12-29T06:26:53;13.70;78.00
913;DHT22;443;51.448;7.028;2022-12-29T06:29:20;13.70;77.70
913;DHT22;443;51.448;7.028;2022-12-29T06:31:47;13.70;77.70
913;DHT22;443;51.448;7.028;2022-12-29T06:34:14;13.70;77.50
913;DHT22;443;51.448;7.028;2022-12-29T06:36:40;13.70;77.50
913;DHT22;443;51.448;7.028;2022-12-29T06:39:07;13.70;77.70
913;DHT22;443;51.448;7.028;2022-12-29T06:41:34;13.70;77.60
913;DHT22;443;51.448;7.028;2022-12-29T06:44:02;13.70;77.40
913;DHT22;443;51.448;7.028;2022-12-29T06:46:29;13.70;77.30
913;DHT22;443;51.448;7.028;2022-12-29T06:48:56;13.70;78.00
913;DHT22;443;51.448;7.028;2022-12-29T06:51:23;13.70;77.70
913;DHT22;443;51.448;7.028;2022-12-29T06:53:49;13.70;78.00
913;DHT22;443;51.448;7.028;2022-12-29T06:56:16;13.70;76.90
913;DHT22;443;51.448;7.028;2022-12-29T06:58:43;13.80;77.70
913;DHT22;443;51.448;7.028;2022-12-29T07:01:11;13.80;77.10
913;DHT22;443;51.448;7.028;2022-12-29T07:03:37;13.80;77.00
913;DHT22;443;51.448;7.028;2022-12-29T07:06:05;13.80;77.30
913;DHT22;443;51.448;7.028;2022-12-29T07:08:31;13.80;77.60
913;DHT22;443;51.448;7.028;2022-12-29T07:10:58;13.80;76.90
913;DHT22;443;51.448;7.028;2022-12-29T07:13:25;13.70;77.20
913;DHT22;443;51.448;7.028;2022-12-29T07:15:51;13.70;76.80
913;DHT22;443;51.448;7.028;2022-12-29T07:18:19;13.80;77.60
913;DHT22;443;51.448;7.028;2022-12-29T07:20:46;13.80;77.30
913;DHT22;443;51.448;7.028;2022-12-29T07:23:13;13.70;76.30
913;DHT22;443;51.448;7.028;2022-12-29T07:25:40;13.80;76.60
913;DHT22;443;51.448;7.028;2022-12-29T07:28:07;13.80;77.90
913;DHT22;443;51.448;7.028;2022-12-29T07:30:36;13.80;78.20
913;DHT22;443;51.448;7.028;2022-12-29T07:33:03;13.80;76.90
913;DHT22;443;51.448;7.028;2022-12-29T07:35:31;13.70;76.70
913;DHT22;443;51.448;7.028;2022-12-29T07:37:57;13.70;76.60
913;DHT22;443;51.448;7.028;2022-12-29T07:40:25;13.80;76.40
913;DHT22;443;51.448;7.028;2022-12-29T07:42:52;13.70;77.60
913;DHT22;443;51.448;7.028;2022-12-29T07:45:18;13.80;77.60
913;DHT22;443;51.448;7.028;2022-12-29T07:47:47;13.70;75.70
913;DHT22;443;51.448;7.028;2022-12-29T07:50:14;13.70;78.00
913;DHT22;443;51.448;7.028;2022-12-29T07:52:42;13.70;76.60
913;DHT22;443;51.448;7.028;2022-12-29T07:55:10;13.70;78.00
913;DHT22;443;51.448;7.028;2022-12-29T07:57:37;13.70;77.40
913;DHT22;443;51.448;7.028;2022-12-29T08:00:04;13.70;76.80
913;DHT22;443;51.448;7.028;2022-12-29T08:02:31;13.70;77.70
913;DHT22;443;51.448;7.028;2022-12-29T08:04:58;13.70;75.60
913;DHT22;443;51.448;7.028;2022-12-29T08:07:24;13.70;77.10
913;DHT22;443;51.448;7.028;2022-12-29T08:09:53;13.70;77.00
913;DHT22;443;51.448;7.028;2022-12-29T08:12:19;13.70;76.00
913;DHT22;443;51.448;7.028;2022-12-29T08:14:46;13.70;77.90
913;DHT22;443;51.448;7.028;2022-12-29T08:17:13;13.70;77.20
913;DHT22;443;51.448;7.028;2022-12-29T08:19:39;13.80;76.80
913;DHT22;443;51.448;7.028;2022-12-29T08:22:08;13.70;76.10
913;DHT22;443;51.448;7.028;2022-12-29T08:24:34;13.70;77.00
913;DHT22;443;51.448;7.028;2022-12-29T08:27:02;13.70;77.80
913;DHT22;443;51.448;7.028;2022-12-29T08:29:29;13.70;76.60
913;DHT22;443;51.448;7.028;2022-12-29T08:31:56;13.70;76.30
913;DHT22;443;51.448;7.028;2022-12-29T08:34:22;13.70;77.30
913;DHT22;443;51.448;7.028;2022-12-29T08:36:49;13.70;77.20
913;DHT22;443;51.448;7.028;2022-12-29T08:39:16;13.70;75.80
913;DHT22;443;51.448;7.028;2022-12-29T08:41:43;13.70;75.20
913;DHT22;443;51.448;7.028;2022-12-29T08:44:11;13.70;77.60
913;DHT22;443;51.448;7.028;2022-12-29T08:46:38;13.70;75.70
913;DHT22;443;51.448;7.028;2022-12-29T08:49:04;13.70;76.70
913;DHT22;443;51.448;7.028;2022-12-29T08:51:31;13.70;77.20
913;DHT22;443;51.448;7.028;2022-12-29T08:53:59;13.70;74.80
913;DHT22;443;51.448;7.028;2022-12-29T08:56:26;13.70;76.40
913;DHT22;443;51.448;7.028;2022-12-29T08:58:53;13.70;76.30
913;DHT22;443;51.448;7.028;2022-12-29T09:01:22;13.80;76.40
913;DHT22;443;51.448;7.028;2022-12-29T09:03:48;13.80;76.40
913;DHT22;443;51.448;7.028;2022-12-29T09:06:16;13.80;76.80
913;DHT22;443;51.448;7.028;2022-12-29T09:08:43;13.80;75.20
913;DHT22;443;51.448;7.028;2022-12-29T09:11:13;13.70;76.20
913;DHT22;443;51.448;7.028;2022-12-29T09:13:40;13.70;76.20
913;DHT22;443;51.448;7.028;2022-12-29T09:16:07;13.70;76.40
913;DHT22;443;51.448;7.028;2022-12-29T09:18:36;13.70;76.10
913;DHT22;443;51.448;7.028;2022-12-29T09:21:05;13.70;75.40
913;DHT22;443;51.448;7.028;2022-12-29T09:23:32;13.70;76.10
913;DHT22;443;51.448;7.028;2022-12-29T09:26:00;13.80;75.70
913;DHT22;443;51.448;7.028;2022-12-29T09:28:27;13.80;77.20
913;DHT22;443;51.448;7.028;2022-12-29T09:30:54;13.80;77.90
913;DHT22;443;51.448;7.028;2022-12-29T09:33:21;13.80;75.80
913;DHT22;443;51.448;7.028;2022-12-29T09:35:52;13.80;76.40
913;DHT22;443;51.448;7.028;2022-12-29T09:38:19;13.80;76.10
913;DHT22;443;51.448;7.028;2022-12-29T09:40:50;13.80;76.90
913;DHT22;443;51.448;7.028;2022-12-29T09:43:32;13.80;76.70
913;DHT22;443;51.448;7.028;2022-12-29T09:46:10;13.80;75.20
913;DHT22;443;51.448;7.028;2022-12-29T09:48:43;13.80;76.20
913;DHT22;443;51.448;7.028;2022-12-29T09:51:15;13.80;76.80
913;DHT22;443;51.448;7.028;2022-12-29T09:53:44;13.80;76.40
913;DHT22;443;51.448;7.028;2022-12-29T09:56:15;13.80;77.20
913;DHT22;443;51.448;7.028;2022-12-29T09:58:47;13.80;77.30
913;DHT22;443;51.448;7.028;2022-12-29T10:01:23;13.80;76.00
913;DHT22;443;51.448;7.028;2022-12-29T10:03:55;13.80;77.10
913;DHT22;443;51.448;7.028;2022-12-29T10:06:27;13.80;76.80
913;DHT22;443;51.448;7.028;2022-12-29T10:09:02;13.80;74.90
913;DHT22;443;51.448;7.028;2022-12-29T10:11:54;13.80;76.60
913;DHT22;443;51.448;7.028;2022-12-29T10:14:37;13.80;76.00
913;DHT22;443;51.448;7.028;2022-12-29T10:17:14;13.80;76.30
913;DHT22;443;51.448;7.028;2022-12-29T10:19:57;13.80;76.50
913;DHT22;443;51.448;7.028;2022-12-29T10:22:41;13.80;76.30
913;DHT22;443;51.448;7.028;2022-12-29T10:25:14;13.70;76.90
913;DHT22;443;51.448;7.028;2022-12-29T10:27:43;13.70;75.40
913;DHT22;443;51.448;7.028;2022-12-29T10:30:12;13.80;75.10
913;DHT22;443;51.448;7.028;2022-12-29T10:32:43;13.80;75.90
913;DHT22;443;51.448;7.028;2022-12-29T10:35:16;13.80;76.80
913;DHT22;443;51.448;7.028;2022-12-29T10:37:50;13.80;77.20
913;DHT22;443;51.448;7.028;2022-12-29T10:40:24;13.80;75.10
913;DHT22;443;51.448;7.028;2022-12-29T10:42:53;13.80;77.10
913;DHT22;443;51.448;7.028;2022-12-29T10:45:22;13.70;75.30
913;DHT22;443;51.448;7.028;2022-12-29T10:47:55;13.80;76.50
913;DHT22;443;51.448;7.028;2022-12-29T10:50:25;13.80;76.30
913;DHT22;443;51.448;7.028;2022-12-29T10:52:54;13.80;76.60
913;DHT22;443;51.448;7.028;2022-12-29T10:55:26;13.80;73.70
913;DHT22;443;51.448;7.028;2022-12-29T10:57:55;13.70;74.70
913;DHT22;443;51.448;7.028;2022-12-29T11:00:23;13.80;78.10
913;DHT22;443;51.448;7.028;2022-12-29T11:03:13;13.80;76.90
913;DHT22;443;51.448;7.028;2022-12-29T11:05:46;13.80;76.70
913;DHT22;443;51.448;7.028;2022-12-29T11:08:19;13.70;74.70
913;DHT22;443;51.448;7.028;2022-12-29T11:10:46;13.70;75.70
913;DHT22;443;51.448;7.028;2022-12-29T11:13:25;13.70;76.00
913;DHT22;443;51.448;7.028;2022-12-29T11:15:52;13.80;76.90
913;DHT22;443;51.448;7.028;2022-12-29T11:18:21;13.80;76.90
913;DHT22;443;51.448;7.028;2022-12-29T11:20:50;13.80;75.20
913;DHT22;443;51.448;7.028;2022-12-29T11:23:24;13.80;76.20
913;DHT22;443;51.448;7.028;2022-12-29T11:26:14;13.80;76.00
913;DHT22;443;51.448;7.028;2022-12-29T11:28:43;13.80;75.90
913;DHT22;443;51.448;7.028;2022-12-29T11:31:10;13.80;75.80
913;DHT22;443;51.448;7.028;2022-12-29T11:33:41;13.80;75.50
913;DHT22;443;51.448;7.028;2022-12-29T11:36:12;13.80;75.50
913;DHT22;443;51.448;7.028;2022-12-29T11:38:45;13.80;76.50
913;DHT22;443;51.448;7.028;2022-12-29T11:41:13;13.90;77.60
913;DHT22;443;51.448;7.028;2022-12-29T11:43:45;13.90;78.00
913;DHT22;443;51.448;7.028;2022-12-29T11:46:16;14.00;78.40
913;DHT22;443;51.448;7.028;2022-12-29T11:48:43;13.90;75.90
913;DHT22;443;51.448;7.028;2022-12-29T11:51:09;14.00;76.00
913;DHT22;443;51.448;7.028;2022-12-29T11:53:39;14.00;75.40
913;DHT22;443;51.448;7.028;2022-12-29T11:56:13;14.00;77.50
913;DHT22;443;51.448;7.028;2022-12-29T11:58:40;14.00;76.20
913;DHT22;443;51.448;7.028;2022-12-29T12:01:13;13.90;76.00
913;DHT22;443;51.448;7.028;2022-12-29T12:03:46;13.90;75.80
913;DHT22;443;51.448;7.028;2022-12-29T12:06:19;13.90;75.10
913;DHT22;443;51.448;7.028;2022-12-29T12:08:54;13.90;75.80
913;DHT22;443;51.448;7.028;2022-12-29T12:11:26;13.80;74.20
913;DHT22;443;51.448;7.028;2022-12-29T12:14:01;13.80;76.30
913;DHT22;443;51.448;7.028;2022-12-29T12:16:33;13.80;76.10
913;DHT22;443;51.448;7.028;2022-12-29T12:19:08;13.80;73.90
913;DHT22;443;51.448;7.028;2022-12-29T12:21:39;13.80;75.00
913;DHT22;443;51.448;7.028;2022-12-29T12:24:19;13.80;75.50
913;DHT22;443;51.448;7.028;2022-12-29T12:26:55;13.80;74.00
913;DHT22;443;51.448;7.028;2022-12-29T12:29:28;13.80;76.40
913;DHT22;443;51.448;7.028;2022-12-29T12:32:02;13.90;77.70
913;DHT22;443;51.448;7.028;2022-12-29T12:34:33;14.00;77.70
913;DHT22;443;51.448;7.028;2022-12-29T12:37:25;14.00;77.30
913;DHT22;443;51.448;7.028;2022-12-29T12:40:14;13.90;77.50
913;DHT22;443;51.448;7.028;2022-12-29T12:42:53;13.90;77.80
913;DHT22;443;51.448;7.028;2022-12-29T12:45:36;14.00;77.70
913;DHT22;443;51.448;7.028;2022-12-29T12:48:19;14.00;77.50
913;DHT22;443;51.448;7.028;2022-12-29T12:50:57;14.00;77.50
913;DHT22;443;51.448;7.028;2022-12-29T12:53:45;14.00;77.20
913;DHT22;443;51.448;7.028;2022-12-29T12:56:27;14.00;77.30
913;DHT22;443;51.448;7.028;2022-12-29T12:59:05;14.00;76.20
913;DHT22;443;51.448;7.028;2022-12-29T13:01:42;14.10;74.40
913;DHT22;443;51.448;7.028;2022-12-29T13:04:38;14.10;73.10
913;DHT22;443;51.448;7.028;2022-12-29T13:07:15;14.10;73.30
913;DHT22;443;51.448;7.028;2022-12-29T13:09:59;14.00;73.40
913;DHT22;443;51.448;7.028;2022-12-29T13:12:36;14.00;74.00
913;DHT22;443;51.448;7.028;2022-12-29T13:15:19;13.90;74.80
913;DHT22;443;51.448;7.028;2022-12-29T13:17:54;13.90;73.00
913;DHT22;443;51.448;7.028;2022-12-29T13:20:30;14.00;76.90
913;DHT22;443;51.448;7.028;2022-12-29T13:23:01;14.00;77.00
913;DHT22;443;51.448;7.028;2022-12-29T13:25:36;14.00;76.90
913;DHT22;443;51.448;7.028;2022-12-29T13:28:11;14.00;77.10
913;DHT22;443;51.448;7.028;2022-12-29T13:30:48;14.00;77.00
913;DHT22;443;51.448;7.028;2022-12-29T13:33:21;14.00;74.20
913;DHT22;443;51.448;7.028;2022-12-29T13:36:00;14.10;74.00
913;DHT22;443;51.448;7.028;2022-12-29T13:38:32;14.00;72.60
913;DHT22;443;51.448;7.028;2022-12-29T13:41:04;14.00;73.80
913;DHT22;443;51.448;7.028;2022-12-29T13:43:35;14.00;73.00
913;DHT22;443;51.448;7.028;2022-12-29T13:46:08;14.10;76.30
913;DHT22;443;51.448;7.028;2022-12-29T13:48:39;14.10;76.70
913;DHT22;443;51.448;7.028;2022-12-29T13:51:08;14.00;76.70
913;DHT22;443;51.448;7.028;2022-12-29T13:53:42;14.00;76.90
913;DHT22;443;51.448;7.028;2022-12-29T13:56:16;14.00;76.30
913;DHT22;443;51.448;7.028;2022-12-29T13:58:50;14.00;74.20
913;DHT22;443;51.448;7.028;2022-12-29T14:01:27;14.00;74.10
913;DHT22;443;51.448;7.028;2022-12-29T14:03:56;14.00;73.30
913;DHT22;443;51.448;7.028;2022-12-29T14:06:25;13.90;73.20
913;DHT22;443;51.448;7.028;2022-12-29T14:08:54;13.90;73.20
913;DHT22;443;51.448;7.028;2022-12-29T14:11:24;13.90;73.90
913;DHT22;443;51.448;7.028;2022-12-29T14:13:55;13.90;73.70
913;DHT22;443;51.448;7.028;2022-12-29T14:16:29;13.90;73.80
913;DHT22;443;51.448;7.028;2022-12-29T14:19:03;13.80;72.20
913;DHT22;443;51.448;7.028;2022-12-29T14:21:31;13.80;72.80
913;DHT22;443;51.448;7.028;2022-12-29T14:24:26;13.80;73.20
913;DHT22;443;51.448;7.028;2022-12-29T14:26:53;13.80;75.40
913;DHT22;443;51.448;7.028;2022-12-29T14:29:42;13.80;74.80
913;DHT22;443;51.448;7.028;2022-12-29T14:32:38;13.70;73.50
913;DHT22;443;51.448;7.028;2022-12-29T14:35:40;13.70;74.70
913;DHT22;443;51.448;7.028;2022-12-29T14:38:18;13.70;73.30
913;DHT22;443;51.448;7.028;2022-12-29T14:40:46;13.70;73.70
913;DHT22;443;51.448;7.028;2022-12-29T14:43:18;13.70;73.70
913;DHT22;443;51.448;7.028;2022-12-29T14:45:53;13.80;73.80
913;DHT22;443;51.448;7.028;2022-12-29T14:48:35;13.70;74.70
913;DHT22;443;51.448;7.028;2022-12-29T14:51:17;13.80;73.80
913;DHT22;443;51.448;7.028;2022-12-29T14:53:46;13.80;74.60
913;DHT22;443;51.448;7.028;2022-12-29T14:56:15;13.70;72.80
913;DHT22;443;51.448;7.028;2022-12-29T14:58:47;13.70;74.20
913;DHT22;443;51.448;7.028;2022-12-29T15:01:22;13.70;73.50
913;DHT22;443;51.448;7.028;2022-12-29T15:03:54;13.70;75.30
913;DHT22;443;51.448;7.028;2022-12-29T15:06:24;13.70;74.50
913;DHT22;443;51.448;7.028;2022-12-29T15:08:56;13.70;74.20
913;DHT22;443;51.448;7.028;2022-12-29T15:11:41;13.70;75.40
913;DHT22;443;51.448;7.028;2022-12-29T15:14:27;13.70;73.90
913;DHT22;443;51.448;7.028;2022-12-29T15:16:54;13.70;73.10
913;DHT22;443;51.448;7.028;2022-12-29T15:19:23;13.70;75.10
913;DHT22;443;51.448;7.028;2022-12-29T15:21:50;13.70;73.30
913;DHT22;443;51.448;7.028;2022-12-29T15:24:18;13.70;74.30
913;DHT22;443;51.448;7.028;2022-12-29T15:26:49;13.70;74.60
913;DHT22;443;51.448;7.028;2022-12-29T15:29:36;13.70;74.60
913;DHT22;443;51.448;7.028;2022-12-29T15:32:19;13.70;75.50
913;DHT22;443;51.448;7.028;2022-12-29T15:34:49;13.70;75.20
913;DHT22;443;51.448;7.028;2022-12-29T15:37:21;13.70;77.00
913;DHT22;443;51.448;7.028;2022-12-29T15:39:49;13.70;76.20
913;DHT22;443;51.448;7.028;2022-12-29T15:42:33;13.70;74.90
913;DHT22;443;51.448;7.028;2022-12-29T15:45:04;13.70;75.50
913;DHT22;443;51.448;7.028;2022-12-29T15:47:31;13.70;75.00
913;DHT22;443;51.448;7.028;2022-12-29T15:50:05;13.70;75.70
913;DHT22;443;51.448;7.028;2022-12-29T15:52:33;13.80;78.10
913;DHT22;443;51.448;7.028;2022-12-29T15:55:00;13.90;78.30
913;DHT22;443;51.448;7.028;2022-12-29T15:57:29;13.90;78.30
913;DHT22;443;51.448;7.028;2022-12-29T15:59:58;13.90;77.10
913;DHT22;443;51.448;7.028;2022-12-29T16:02:27;13.80;75.10
913;DHT22;443;51.448;7.028;2022-12-29T16:04:54;13.80;75.60
913;DHT22;443;51.448;7.028;2022-12-29T16:07:28;13.80;74.10
913;DHT22;443;51.448;7.028;2022-12-29T16:09:56;13.90;78.10
913;DHT22;443;51.448;7.028;2022-12-29T16:12:26;13.90;77.50
913;DHT22;443;51.448;7.028;2022-12-29T16:14:55;13.90;77.90
913;DHT22;443;51.448;7.028;2022-12-29T16:17:24;13.90;78.20
913;DHT22;443;51.448;7.028;2022-12-29T16:19:55;13.90;78.30
913;DHT22;443;51.448;7.028;2022-12-29T16:22:29;13.90;78.30
913;DHT22;443;51.448;7.028;2022-12-29T16:24:58;13.90;78.30
913;DHT22;443;51.448;7.028;2022-12-29T16:27:31;13.90;78.20
913;DHT22;443;51.448;7.028;2022-12-29T16:30:04;13.90;75.50
913;DHT22;443;51.448;7.028;2022-12-29T16:32:32;13.90;73.60
913;DHT22;443;51.448;7.028;2022-12-29T16:35:13;13.80;72.30
913;DHT22;443;51.448;7.028;2022-12-29T16:37:44;13.80;73.00
913;DHT22;443;51.448;7.028;2022-12-29T16:40:28;13.80;74.40
913;DHT22;443;51.448;7.028;2022-12-29T16:42:58;13.70;74.50
913;DHT22;443;51.448;7.028;2022-12-29T16:48:34;13.60;75.00
913;DHT22;443;51.448;7.028;2022-12-29T16:51:03;13.60;73.00
913;DHT22;443;51.448;7.028;2022-12-29T16:53:34;13.60;75.50
913;DHT22;443;51.448;7.028;2022-12-29T16:56:07;13.50;75.80
913;DHT22;443;51.448;7.028;2022-12-29T16:58:34;13.50;71.70
913;DHT22;443;51.448;7.028;2022-12-29T17:01:04;13.50;74.90
913;DHT22;443;51.448;7.028;2022-12-29T17:03:42;13.50;74.00
913;DHT22;443;51.448;7.028;2022-12-29T17:06:14;13.50;76.80
913;DHT22;443;51.448;7.028;2022-12-29T17:08:43;13.50;75.20